Time;durP1;ratioP1;P1;durP2;ratioP2;P2;SDS_P1;SDS_P2;PMS_P1;PMS_P2;Temp;Humidity;BMP_temperature;BMP_pressure;BME280_temperature;BME280_humidity;BME280_pressure;Samples;Min_cycle;Max_cycle;Signal;HPM_P1;HPM_P2
2022/07/14 00:00:43;;;;;;;5.15;1.70;;;;;;;17.23;67.50;102009.13;5057608;28;20033;-74
2022/07/14 00:03:09;;;;;;;6.95;1.55;;;;;;;17.23;66.71;102007.34;5060512;28;20024;-74
2022/07/14 00:05:35;;;;;;;6.00;1.73;;;;;;;17.20;67.79;102007.44;5057929;28;20028;-74
2022/07/14 00:08:00;;;;;;;6.85;2.10;;;;;;;17.16;67.72;102007.63;5056269;28;20503;-74
2022/07/14 00:10:26;;;;;;;7.00;1.83;;;;;;;17.11;68.27;101999.88;5064640;28;20105;-74
2022/07/14 00:12:51;;;;;;;8.27;1.90;;;;;;;17.08;67.74;101998.22;5063692;28;20475;-74
2022/07/14 00:15:16;;;;;;;8.13;1.98;;;;;;;17.06;67.72;101994.81;5058926;28;20021;-74
2022/07/14 00:17:42;;;;;;;5.22;1.80;;;;;;;17.00;68.00;101995.00;5063009;28;20490;-74
2022/07/14 00:20:08;;;;;;;7.65;1.90;;;;;;;17.00;68.51;101997.63;5063172;28;20655;-74
2022/07/14 00:22:33;;;;;;;7.22;1.83;;;;;;;16.96;67.82;101998.63;5058366;28;20376;-74
2022/07/14 00:24:59;;;;;;;8.57;2.00;;;;;;;16.94;68.48;101995.16;5060496;28;20043;-74
2022/07/14 00:27:25;;;;;;;5.40;1.58;;;;;;;16.91;68.40;101997.94;5057785;28;20033;-74
2022/07/14 00:29:50;;;;;;;8.02;1.80;;;;;;;16.92;68.54;101995.22;5057523;28;20037;-74
2022/07/14 00:32:15;;;;;;;6.60;2.05;;;;;;;16.93;68.13;101986.44;5061826;28;20033;-74
2022/07/14 00:34:41;;;;;;;9.98;1.90;;;;;;;16.92;68.35;101978.59;5059088;28;20074;-74
2022/07/14 00:37:06;;;;;;;7.80;2.08;;;;;;;16.91;68.40;101976.91;5058373;28;20029;-73
2022/07/14 00:39:54;;;;;;;6.38;1.83;;;;;;;16.88;68.57;101974.38;5059731;28;20078;-74
2022/07/14 00:42:30;;;;;;;5.97;1.98;;;;;;;16.83;67.84;101964.88;5058957;28;20040;-74
2022/07/14 00:44:56;;;;;;;9.38;1.88;;;;;;;16.84;69.01;101976.22;5057551;28;20051;-74
2022/07/14 00:47:21;;;;;;;7.57;1.85;;;;;;;16.78;69.44;101985.16;5063300;28;20064;-73
2022/07/14 00:49:46;;;;;;;7.45;2.00;;;;;;;16.76;69.05;101989.63;5065169;28;20036;-74
2022/07/14 00:52:12;;;;;;;5.10;1.95;;;;;;;16.75;69.79;101990.53;5058446;28;20055;-74
2022/07/14 00:54:37;;;;;;;6.38;2.17;;;;;;;16.73;68.98;101984.50;5064110;28;20025;-74
2022/07/14 00:57:02;;;;;;;5.38;2.05;;;;;;;16.71;69.21;101986.31;5064280;28;20070;-74
2022/07/14 00:59:27;;;;;;;5.85;1.88;;;;;;;16.68;69.59;101987.25;5062039;28;20024;-74
2022/07/14 01:01:53;;;;;;;5.80;1.80;;;;;;;16.64;69.86;101985.66;5058787;28;20475;-74
2022/07/14 01:04:18;;;;;;;8.07;1.88;;;;;;;16.65;69.25;101979.47;5061792;28;20028;-74
2022/07/14 01:06:43;;;;;;;6.85;1.98;;;;;;;16.65;69.18;101987.34;5057877;28;20020;-74
2022/07/14 01:09:08;;;;;;;7.45;2.00;;;;;;;16.61;69.76;101998.00;5059349;28;20305;-74
2022/07/14 01:11:34;;;;;;;7.05;2.30;;;;;;;16.60;70.18;101998.91;5060139;28;20113;-74
2022/07/14 01:14:03;;;;;;;6.68;1.95;;;;;;;16.60;69.90;102001.53;5057901;28;20024;-74
2022/07/14 01:16:29;;;;;;;9.65;2.00;;;;;;;16.60;69.88;101991.91;5060253;28;20094;-73
2022/07/14 01:18:54;;;;;;;7.63;1.92;;;;;;;16.60;69.02;101994.53;5055933;28;20444;-74
2022/07/14 01:21:19;;;;;;;7.65;2.20;;;;;;;16.58;69.19;102006.88;5058985;28;20380;-74
2022/07/14 01:23:44;;;;;;;6.65;2.20;;;;;;;16.56;69.74;102006.03;5060745;28;20107;-74
2022/07/14 01:26:10;;;;;;;6.60;1.83;;;;;;;16.54;70.67;102006.13;5057787;28;20074;-74
2022/07/14 01:28:35;;;;;;;5.97;1.90;;;;;;;16.54;70.67;102010.50;5060306;28;20036;-74
2022/07/14 01:31:00;;;;;;;6.07;1.88;;;;;;;16.51;70.72;102016.72;5055818;28;20075;-74
2022/07/14 01:33:25;;;;;;;7.13;1.92;;;;;;;16.51;70.83;102016.72;5056979;28;20020;-74
2022/07/14 01:35:51;;;;;;;9.65;1.98;;;;;;;16.53;70.20;102017.53;5060465;28;20017;-73
2022/07/14 01:38:16;;;;;;;7.13;2.30;;;;;;;16.51;70.97;102021.97;5063523;28;20023;-74
2022/07/14 01:40:41;;;;;;;5.45;1.90;;;;;;;16.49;70.47;102021.16;5057537;28;20399;-74
2022/07/14 01:43:07;;;;;;;5.65;2.33;;;;;;;16.46;70.43;102023.88;5060579;28;20388;-74
2022/07/14 01:45:34;;;;;;;5.40;1.90;;;;;;;16.43;70.91;102021.34;5062371;28;20249;-74
2022/07/14 01:48:00;;;;;;;6.85;2.15;;;;;;;16.43;70.80;102016.09;5040161;28;20063;-74
2022/07/14 01:50:26;;;;;;;6.40;2.00;;;;;;;16.43;71.06;102013.44;5056869;28;20040;-73
2022/07/14 01:52:51;;;;;;;5.07;1.70;;;;;;;16.40;70.49;102005.66;5061777;28;20028;-74
2022/07/14 01:55:17;;;;;;;8.18;2.40;;;;;;;16.38;70.62;102010.13;5060689;28;20075;-74
2022/07/14 01:57:42;;;;;;;6.28;2.08;;;;;;;16.37;70.69;102005.78;5058507;28;20021;-74
2022/07/14 02:00:08;;;;;;;6.18;2.00;;;;;;;16.35;70.83;102000.56;5059281;28;20032;-73
2022/07/14 02:02:33;;;;;;;6.88;1.92;;;;;;;16.36;71.20;101998.81;5058259;28;20082;-74
2022/07/14 02:04:59;;;;;;;5.60;2.13;;;;;;;16.35;71.27;101994.47;5060644;28;20032;-74
2022/07/14 02:07:24;;;;;;;5.68;2.03;;;;;;;16.32;71.38;101999.81;5056250;28;20037;-73
2022/07/14 02:12:33;;;;;;;6.95;2.40;;;;;;;16.26;71.42;102002.63;5059109;28;20082;-74
2022/07/14 02:14:58;;;;;;;7.28;2.17;;;;;;;16.21;71.29;101998.41;5060851;28;20036;-73
2022/07/14 02:17:24;;;;;;;7.47;2.40;;;;;;;16.17;71.62;101993.25;5060163;28;20028;-73
2022/07/14 02:19:49;;;;;;;5.82;1.95;;;;;;;16.14;71.43;101988.97;5064010;28;20033;-73
2022/07/14 02:22:14;;;;;;;7.90;2.05;;;;;;;16.13;71.44;101989.03;5061234;28;20142;-73
2022/07/14 02:24:41;;;;;;;7.07;2.15;;;;;;;16.09;71.57;101996.13;5059943;28;20395;-74
2022/07/14 02:27:07;;;;;;;8.20;2.30;;;;;;;16.06;71.48;101993.59;5057079;28;20060;-74
2022/07/14 02:29:33;;;;;;;9.55;2.17;;;;;;;16.03;71.83;101993.69;5053802;28;20029;-74
2022/07/14 02:31:58;;;;;;;10.20;2.95;;;;;;;15.99;71.74;101995.53;5056424;28;20044;-74
2022/07/14 02:34:24;;;;;;;7.53;1.90;;;;;;;15.95;71.91;101996.56;5060480;28;20041;-73
2022/07/14 02:36:49;;;;;;;9.50;2.33;;;;;;;15.89;71.77;102002.81;5056346;28;20506;-73
2022/07/14 02:39:14;;;;;;;8.80;2.50;;;;;;;15.87;71.69;102009.91;5061519;28;20024;-74
2022/07/14 02:41:41;;;;;;;9.15;2.40;;;;;;;15.85;72.25;101997.69;5059326;28;20048;-73
2022/07/14 02:44:08;;;;;;;10.73;2.25;;;;;;;15.82;71.97;101990.78;5054105;28;20028;-73
2022/07/14 02:46:34;;;;;;;5.93;2.00;;;;;;;15.78;71.60;101992.63;5055545;28;20103;-73
2022/07/14 02:48:59;;;;;;;7.28;2.35;;;;;;;15.75;71.88;101995.34;5060312;28;20459;-73
2022/07/14 02:51:24;;;;;;;4.80;1.70;;;;;;;15.73;71.69;101988.41;5060226;28;20036;-73
2022/07/14 02:53:50;;;;;;;9.73;2.00;;;;;;;15.67;71.77;101984.19;5059239;28;20442;-73
2022/07/14 02:56:15;;;;;;;8.65;2.30;;;;;;;15.66;71.63;101986.88;5041334;28;20053;-73
2022/07/14 02:58:40;;;;;;;6.93;2.17;;;;;;;15.62;71.93;101984.34;5054431;28;20020;-73
2022/07/14 03:01:07;;;;;;;7.93;2.10;;;;;;;15.59;72.11;101984.41;5059903;28;20442;-74
2022/07/14 03:03:36;;;;;;;8.43;2.42;;;;;;;15.56;72.13;101984.50;5056891;28;20029;-74
2022/07/14 03:06:08;;;;;;;5.60;1.95;;;;;;;15.56;71.54;101978.41;5059981;28;20028;-74
2022/07/14 03:08:34;;;;;;;8.05;2.47;;;;;;;15.51;71.40;101973.31;5060046;28;20036;-74
2022/07/14 03:10:59;;;;;;;5.75;2.20;;;;;;;15.51;71.37;101969.81;5058759;28;20383;-73
2022/07/14 03:13:24;;;;;;;6.45;2.15;;;;;;;15.50;71.27;101978.56;5060229;28;20075;-73
2022/07/14 03:15:50;;;;;;;8.63;2.40;;;;;;;15.46;71.13;101977.81;5056939;28;20447;-74
2022/07/14 03:18:15;;;;;;;5.95;2.03;;;;;;;15.43;71.87;101972.66;5055658;28;20083;-73
2022/07/14 03:20:40;;;;;;;10.65;2.60;;;;;;;15.40;72.01;101967.47;5056883;28;20052;-73
2022/07/14 03:23:06;;;;;;;10.25;2.38;;;;;;;15.37;71.73;101967.59;5059359;28;20036;-74
2022/07/14 03:25:31;;;;;;;7.20;2.40;;;;;;;15.33;71.77;101958.94;5056925;28;20059;-73
2022/07/14 03:27:56;;;;;;;8.43;2.30;;;;;;;15.30;72.16;101954.63;5058956;28;20029;-74
2022/07/14 03:30:22;;;;;;;7.97;2.53;;;;;;;15.25;72.04;101959.13;5057360;28;20028;-73
2022/07/14 03:32:47;;;;;;;6.72;2.20;;;;;;;15.22;72.57;101956.59;5057587;28;20083;-73
2022/07/14 03:35:12;;;;;;;7.30;2.03;;;;;;;15.20;72.27;101949.69;5056808;28;20036;-73
2022/07/14 03:37:38;;;;;;;9.02;2.50;;;;;;;15.14;72.44;101951.56;5055892;28;20016;-74
2022/07/14 03:40:05;;;;;;;7.95;2.33;;;;;;;15.13;72.21;101954.25;5053999;28;20053;-73
2022/07/14 03:42:30;;;;;;;7.18;2.42;;;;;;;15.11;72.62;101958.66;5060268;28;20035;-73
2022/07/14 03:44:56;;;;;;;8.45;2.50;;;;;;;15.10;72.63;101949.97;5055746;28;20024;-73
2022/07/14 03:47:22;;;;;;;7.45;2.80;;;;;;;15.08;72.34;101951.75;5057609;28;20017;-73
2022/07/14 03:49:47;;;;;;;5.32;2.28;;;;;;;15.03;72.56;101962.34;5056300;28;20134;-73
2022/07/14 03:52:13;;;;;;;11.20;3.05;;;;;;;14.99;72.80;101960.72;5042255;28;20064;-74
2022/07/14 03:54:38;;;;;;;6.60;2.47;;;;;;;14.96;72.25;101973.03;5055929;28;20479;-74
2022/07/14 03:57:04;;;;;;;7.03;2.70;;;;;;;14.93;72.08;101968.72;5061111;28;20074;-74
2022/07/14 03:59:30;;;;;;;7.10;2.22;;;;;;;14.90;71.83;101971.44;5059010;28;20032;-74
2022/07/14 04:01:55;;;;;;;6.03;2.30;;;;;;;14.91;72.37;101969.69;5056291;28;20021;-73
2022/07/14 04:04:21;;;;;;;9.15;2.80;;;;;;;14.90;72.51;101974.03;5060061;28;20032;-73
2022/07/14 04:06:46;;;;;;;7.35;2.47;;;;;;;14.88;72.71;101970.59;5057559;28;20052;-73
2022/07/14 04:09:12;;;;;;;10.60;3.00;;;;;;;14.87;72.92;101968.88;5057949;28;20029;-73
2022/07/14 04:11:37;;;;;;;7.97;2.65;;;;;;;14.85;73.07;101968.09;5057747;28;20059;-73
2022/07/14 04:14:02;;;;;;;8.60;2.95;;;;;;;14.83;72.75;101972.50;5055130;28;20032;-73
2022/07/14 04:16:28;;;;;;;6.45;2.70;;;;;;;14.84;73.02;101969.81;5063316;28;20036;-73
2022/07/14 04:18:53;;;;;;;5.57;2.60;;;;;;;14.89;73.28;101963.63;5054403;28;20025;-73
2022/07/14 04:21:18;;;;;;;9.38;2.60;;;;;;;14.88;72.28;101965.34;5059300;28;20032;-73
2022/07/14 04:23:43;;;;;;;7.63;2.50;;;;;;;14.88;72.51;101967.97;5056968;28;20171;-73
2022/07/14 04:26:09;;;;;;;7.57;2.67;;;;;;;14.87;72.67;101958.41;5056806;28;20025;-73
2022/07/14 04:28:34;;;;;;;7.38;2.78;;;;;;;14.87;73.29;101963.63;5063291;28;20391;-73
2022/07/14 04:31:00;;;;;;;9.73;2.53;;;;;;;14.85;73.26;101971.56;5068008;28;20048;-73
2022/07/14 04:33:25;;;;;;;7.90;3.08;;;;;;;14.90;73.40;101965.34;5058403;28;20072;-73
2022/07/14 04:35:50;;;;;;;7.57;2.55;;;;;;;14.94;73.34;101970.44;5055715;28;20033;-73
2022/07/14 04:38:16;;;;;;;9.68;2.58;;;;;;;14.97;73.52;101969.50;5059440;28;20436;-74
2022/07/14 04:40:52;;;;;;;6.15;2.60;;;;;;;15.00;72.72;101965.06;5067314;28;20109;-73
2022/07/14 04:43:18;;;;;;;9.05;2.78;;;;;;;15.01;73.54;101960.66;5064316;28;20021;-73
2022/07/14 04:45:45;;;;;;;8.27;2.72;;;;;;;15.03;73.47;101964.97;5063551;28;20468;-73
2022/07/14 04:48:10;;;;;;;9.40;3.03;;;;;;;15.05;73.35;101962.31;5070572;28;20036;-73
2022/07/14 04:53:20;;;;;;;10.88;3.00;;;;;;;15.09;73.40;101968.31;5067960;28;20044;-73
2022/07/14 04:55:45;;;;;;;8.82;3.03;;;;;;;15.11;73.46;101967.41;5053053;28;20032;-73
2022/07/14 04:58:10;;;;;;;8.15;3.42;;;;;;;15.15;73.73;101973.41;5060116;28;20491;-73
2022/07/14 05:00:35;;;;;;;7.70;3.38;;;;;;;15.18;73.63;101971.56;5059538;28;20027;-74
2022/07/14 05:03:01;;;;;;;8.45;3.10;;;;;;;15.17;73.63;101982.94;5062742;28;20084;-73
2022/07/14 05:05:26;;;;;;;12.02;3.33;;;;;;;15.20;73.90;101975.91;5065446;28;20032;-73
2022/07/14 05:07:51;;;;;;;6.13;2.70;;;;;;;15.22;74.21;101974.94;5059743;28;20063;-73
2022/07/14 05:10:17;;;;;;;7.78;3.05;;;;;;;15.25;73.89;101985.34;5066425;28;21555;-74
2022/07/14 05:12:42;;;;;;;8.10;3.10;;;;;;;15.26;74.03;101981.84;5063851;28;20028;-73
2022/07/14 05:15:08;;;;;;;7.80;3.10;;;;;;;15.31;74.03;101976.47;5057907;28;20115;-73
2022/07/14 05:17:33;;;;;;;9.63;3.30;;;;;;;15.33;74.11;101988.66;5060904;28;20483;-73
2022/07/14 05:19:58;;;;;;;8.82;2.97;;;;;;;15.35;74.25;101985.13;5068651;28;20028;-73
2022/07/14 05:22:25;;;;;;;7.35;3.13;;;;;;;15.39;74.14;101989.34;5064769;28;20099;-73
2022/07/14 05:24:50;;;;;;;9.43;3.17;;;;;;;15.44;74.09;101984.84;5065998;28;20483;-73
2022/07/14 05:27:15;;;;;;;7.68;3.42;;;;;;;15.48;74.17;101982.09;5069030;28;20020;-74
2022/07/14 05:29:41;;;;;;;8.02;3.42;;;;;;;15.55;74.34;101980.16;5069920;28;20426;-73
2022/07/14 05:32:06;;;;;;;10.27;3.38;;;;;;;15.62;73.69;101973.00;5065395;28;20099;-73
2022/07/14 05:34:31;;;;;;;9.30;3.30;;;;;;;15.66;73.79;101973.75;5068498;28;20043;-73
2022/07/14 05:36:58;;;;;;;6.75;2.80;;;;;;;15.71;73.27;101977.13;5065756;28;20052;-73
2022/07/14 05:39:24;;;;;;;6.10;2.70;;;;;;;15.75;74.05;101983.97;5064880;28;20020;-73
2022/07/14 05:41:49;;;;;;;7.32;2.92;;;;;;;15.82;73.42;101985.53;5059220;28;20051;-73
2022/07/14 05:44:14;;;;;;;7.75;2.42;;;;;;;15.90;73.25;101991.44;5068763;28;20034;-74
2022/07/14 05:46:40;;;;;;;8.35;2.95;;;;;;;15.96;73.41;101989.53;5067261;28;20067;-74
2022/07/14 05:49:05;;;;;;;8.90;3.17;;;;;;;15.99;73.25;101989.44;5067945;28;20512;-73
2022/07/14 05:51:30;;;;;;;9.52;2.90;;;;;;;16.04;72.43;101980.53;5066046;28;20498;-74
2022/07/14 05:53:55;;;;;;;6.82;2.88;;;;;;;16.12;73.31;101992.56;5048680;28;20047;-73
2022/07/14 05:56:21;;;;;;;10.32;2.90;;;;;;;16.15;72.75;101988.06;5071693;28;20028;-73
2022/07/14 05:58:47;;;;;;;10.00;2.60;;;;;;;16.21;72.63;101989.63;5069946;28;20021;-74
2022/07/14 06:01:14;;;;;;;10.85;3.15;;;;;;;16.26;71.16;101985.13;5062806;28;20082;-73
2022/07/14 06:03:39;;;;;;;10.20;2.90;;;;;;;16.33;72.21;101985.78;5067809;28;20035;-73
2022/07/14 06:06:06;;;;;;;9.45;2.55;;;;;;;16.36;71.41;101991.78;5066512;28;20458;-73
2022/07/14 06:08:32;;;;;;;10.40;2.95;;;;;;;16.38;71.81;101987.34;5065211;28;20052;-74
2022/07/14 06:10:58;;;;;;;11.88;2.83;;;;;;;16.44;71.82;101986.28;5071921;28;20414;-73
2022/07/14 06:13:25;;;;;;;6.57;2.38;;;;;;;16.51;71.39;101974.69;5066413;28;20039;-73
2022/07/14 06:15:51;;;;;;;7.75;2.50;;;;;;;16.59;71.22;101978.81;5064177;28;20160;-73
2022/07/14 06:18:16;;;;;;;8.38;2.80;;;;;;;16.66;70.59;101977.72;5067944;28;20530;-73
2022/07/14 06:20:42;;;;;;;8.88;3.20;;;;;;;16.71;69.88;101969.66;5068733;28;20106;-73
2022/07/14 06:23:09;;;;;;;7.10;2.25;;;;;;;16.76;69.01;101968.59;5067281;28;20032;-73
2022/07/14 06:25:35;;;;;;;10.52;2.83;;;;;;;16.80;69.02;101964.97;5066134;28;20025;-74
2022/07/14 06:28:00;;;;;;;8.90;2.78;;;;;;;16.84;68.29;101963.94;5057808;28;20070;-73
2022/07/14 06:30:25;;;;;;;11.23;3.13;;;;;;;16.91;68.55;101971.63;5066966;28;20463;-73
2022/07/14 06:32:51;;;;;;;9.20;2.63;;;;;;;16.96;68.87;101974.97;5068026;28;20025;-73
2022/07/14 06:35:16;;;;;;;9.52;3.03;;;;;;;17.01;69.14;101967.81;5062783;28;20119;-73
2022/07/14 06:37:41;;;;;;;11.40;3.08;;;;;;;17.05;68.65;101969.41;5066844;28;20487;-73
2022/07/14 06:40:07;;;;;;;10.45;3.08;;;;;;;17.08;68.91;101974.53;5064638;28;20049;-73
2022/07/14 06:42:33;;;;;;;10.52;3.03;;;;;;;17.12;67.54;101981.41;5065655;28;20016;-74
2022/07/14 06:44:59;;;;;;;11.98;3.42;;;;;;;17.19;67.75;101970.69;5068775;28;20040;-74
2022/07/14 06:47:24;;;;;;;11.52;3.42;;;;;;;17.25;68.25;101983.63;5065298;28;20028;-73
2022/07/14 06:49:49;;;;;;;10.38;3.00;;;;;;;17.31;67.73;101985.19;5058524;28;20379;-73
2022/07/14 06:52:15;;;;;;;10.20;3.13;;;;;;;17.32;67.11;101986.91;5058493;28;20157;-73
2022/07/14 06:54:40;;;;;;;8.32;2.83;;;;;;;17.35;66.92;101982.38;5062213;28;20396;-73
2022/07/14 06:57:05;;;;;;;9.23;2.75;;;;;;;17.41;66.93;101987.44;5045171;28;20384;-73
2022/07/14 06:59:31;;;;;;;8.75;2.67;;;;;;;17.45;66.75;101981.13;5042043;28;20032;-73
2022/07/14 07:01:56;;;;;;;9.02;2.95;;;;;;;17.51;66.19;101981.81;5059878;28;20025;-73
2022/07/14 07:04:23;;;;;;;9.60;3.20;;;;;;;17.56;66.66;101978.09;5040464;28;20095;-74
2022/07/14 07:06:50;;;;;;;7.93;2.90;;;;;;;17.60;66.83;101970.94;5056199;28;20036;-74
2022/07/14 07:09:17;;;;;;;6.22;2.50;;;;;;;17.68;67.59;101971.53;5060619;28;20039;-73
2022/07/14 07:11:45;;;;;;;6.88;2.40;;;;;;;17.70;65.28;101972.31;5069420;28;20020;-73
2022/07/14 07:14:11;;;;;;;7.43;2.60;;;;;;;17.68;66.19;101968.91;5058203;28;20380;-74
2022/07/14 07:16:36;;;;;;;8.27;3.15;;;;;;;17.72;65.61;101974.88;5056375;28;20016;-73
2022/07/14 07:19:02;;;;;;;9.00;2.70;;;;;;;17.75;66.51;101964.25;5062833;28;20395;-74
2022/07/14 07:21:27;;;;;;;7.80;2.53;;;;;;;17.81;65.98;101969.28;5064881;28;20102;-73
2022/07/14 07:23:54;;;;;;;7.32;3.10;;;;;;;17.87;64.99;101968.19;5060073;28;20021;-73
2022/07/14 07:26:22;;;;;;;9.05;2.70;;;;;;;17.93;66.30;101973.22;5064464;28;20481;-73
2022/07/14 07:28:48;;;;;;;7.50;2.72;;;;;;;17.96;64.43;101972.25;5065063;28;20456;-74
2022/07/14 07:31:13;;;;;;;7.40;2.45;;;;;;;18.01;64.83;101975.59;5065134;28;20032;-74
2022/07/14 07:33:39;;;;;;;6.07;2.60;;;;;;;18.04;63.63;101973.69;5055296;28;20033;-74
2022/07/14 07:36:05;;;;;;;8.00;2.90;;;;;;;18.08;64.45;101978.84;5065496;28;20091;-73
2022/07/14 07:38:30;;;;;;;7.70;2.95;;;;;;;18.12;64.26;101976.03;5069713;28;20033;-74
2022/07/14 07:40:55;;;;;;;8.13;3.08;;;;;;;18.13;63.16;101976.88;5062824;28;20130;-73
2022/07/14 07:43:21;;;;;;;9.60;2.90;;;;;;;18.17;63.04;101965.31;5061688;28;20051;-73
2022/07/14 07:45:47;;;;;;;7.95;2.72;;;;;;;18.22;64.78;101962.47;5060131;28;20092;-73
2022/07/14 07:48:12;;;;;;;7.93;2.53;;;;;;;18.26;64.11;101954.41;5054242;28;20059;-73
2022/07/14 07:50:41;;;;;;;5.63;2.22;;;;;;;18.29;63.14;101949.00;5061194;28;20061;-74
2022/07/14 07:53:07;;;;;;;8.07;2.47;;;;;;;18.32;63.43;101948.03;5064177;28;20036;-73
2022/07/14 07:55:33;;;;;;;6.88;2.10;;;;;;;18.33;65.35;101950.59;5059281;28;20074;-74
2022/07/14 07:57:59;;;;;;;8.23;2.78;;;;;;;18.37;62.91;101945.19;5063303;28;20027;-74
2022/07/14 08:00:25;;;;;;;6.20;2.63;;;;;;;18.41;61.63;101957.34;5062495;28;20039;-73
2022/07/14 08:02:52;;;;;;;5.53;2.17;;;;;;;18.45;61.62;101946.59;5060784;28;20028;-74
2022/07/14 08:05:19;;;;;;;5.10;2.10;;;;;;;18.47;59.21;101936.84;5059641;28;20039;-73
2022/07/14 08:07:44;;;;;;;6.25;2.50;;;;;;;18.49;60.91;101935.03;5061439;28;20116;-74
2022/07/14 08:10:10;;;;;;;6.22;2.50;;;;;;;18.53;60.85;101938.38;5057966;28;20124;-73
2022/07/14 08:12:35;;;;;;;7.63;2.05;;;;;;;18.56;62.73;101930.34;5066346;28;20481;-74
2022/07/14 08:15:00;;;;;;;6.53;2.00;;;;;;;18.62;63.63;101922.16;5064987;28;20464;-74
2022/07/14 08:17:26;;;;;;;6.55;2.03;;;;;;;18.67;60.59;101922.00;5061160;28;20032;-73
2022/07/14 08:19:51;;;;;;;6.30;2.10;;;;;;;18.71;59.71;101925.34;5063891;28;20448;-74
2022/07/14 08:22:24;;;;;;;6.32;1.98;;;;;;;18.69;59.86;101925.41;5067282;28;20037;-74
2022/07/14 08:24:49;;;;;;;6.22;1.80;;;;;;;18.66;60.91;101921.13;5066851;28;20063;-73
2022/07/14 08:27:15;;;;;;;6.05;2.10;;;;;;;18.71;59.95;101928.81;5063631;28;20048;-73
2022/07/14 08:29:41;;;;;;;3.33;1.60;;;;;;;18.77;61.27;101923.28;5064688;28;20036;-74
2022/07/14 08:32:07;;;;;;;6.65;2.10;;;;;;;18.81;60.86;101918.72;5062436;28;20032;-73
2022/07/14 08:34:32;;;;;;;6.53;2.00;;;;;;;18.87;60.88;101915.00;5064599;28;20082;-74
2022/07/14 08:36:58;;;;;;;3.38;1.40;;;;;;;18.91;62.70;101914.78;5064916;28;20115;-73
2022/07/14 08:39:24;;;;;;;5.68;2.03;;;;;;;18.93;61.00;101907.69;5064227;28;20020;-74
2022/07/14 08:41:51;;;;;;;4.82;1.70;;;;;;;18.99;60.56;101908.34;5062490;28;20052;-73
2022/07/14 08:44:18;;;;;;;8.32;2.10;;;;;;;19.04;60.45;101909.88;5062903;28;20109;-73
2022/07/14 08:46:44;;;;;;;7.07;2.00;;;;;;;19.03;56.96;101907.28;5064024;28;20059;-74
2022/07/14 08:49:09;;;;;;;5.30;1.70;;;;;;;19.04;58.74;101903.72;5062610;28;20052;-73
2022/07/14 08:51:39;;;;;;;6.03;1.85;;;;;;;19.07;59.93;101904.44;5064917;28;20028;-73
2022/07/14 08:54:05;;;;;;;7.18;2.10;;;;;;;19.10;57.80;101904.31;5068338;28;20051;-74
2022/07/14 08:56:30;;;;;;;6.88;1.90;;;;;;;19.15;60.14;101897.97;5074278;28;20028;-73
2022/07/14 08:58:56;;;;;;;4.25;1.65;;;;;;;19.19;58.08;101912.75;5067632;28;20013;-74
2022/07/14 09:01:22;;;;;;;6.05;1.77;;;;;;;19.19;57.88;101905.66;5070862;28;20024;-73
2022/07/14 09:03:49;;;;;;;7.03;1.70;;;;;;;19.22;58.82;101907.31;5071608;28;20060;-74
2022/07/14 09:06:44;;;;;;;4.88;1.50;;;;;;;19.32;59.72;101897.19;5070157;28;20025;-74
2022/07/14 09:09:09;;;;;;;4.60;1.67;;;;;;;19.39;58.73;101898.63;5068058;28;20044;-73
2022/07/14 09:11:35;;;;;;;6.60;1.65;;;;;;;19.44;57.18;101909.84;5067825;28;20542;-73
2022/07/14 09:14:10;;;;;;;6.47;1.90;;;;;;;19.51;59.06;101897.22;5064575;28;20025;-73
2022/07/14 09:16:36;;;;;;;4.47;1.60;;;;;;;19.56;58.79;101898.72;5068184;28;20503;-74
2022/07/14 09:19:13;;;;;;;5.20;1.50;;;;;;;19.63;58.68;101901.91;5062176;28;20116;-73
2022/07/14 09:21:42;;;;;;;3.92;1.38;;;;;;;19.68;56.83;101899.03;5061774;28;20028;-74
2022/07/14 09:24:09;;;;;;;4.60;1.25;;;;;;;19.72;57.37;101897.97;5063284;28;20043;-73
2022/07/14 09:26:45;;;;;;;4.75;1.40;;;;;;;19.77;56.48;101898.63;5058754;28;20028;-73
2022/07/14 09:29:19;;;;;;;4.90;1.45;;;;;;;19.83;56.16;101900.09;5062047;28;20056;-74
2022/07/14 09:31:45;;;;;;;5.97;1.35;;;;;;;19.86;57.16;101892.88;5061772;28;20066;-74
2022/07/14 09:34:25;;;;;;;5.10;1.35;;;;;;;19.88;56.64;101889.34;5044404;28;20025;-74
2022/07/14 09:36:51;;;;;;;5.20;1.50;;;;;;;19.87;52.53;101893.78;5061588;28;20024;-73
2022/07/14 09:39:16;;;;;;;4.30;1.17;;;;;;;19.92;55.87;101896.19;5062231;28;20107;-74
2022/07/14 09:41:52;;;;;;;6.55;1.30;;;;;;;19.94;54.76;101883.78;5066193;28;20367;-74
2022/07/14 09:44:19;;;;;;;3.15;1.00;;;;;;;19.98;52.78;101895.91;5047720;28;20440;-73
2022/07/14 09:46:44;;;;;;;4.53;1.33;;;;;;;20.02;50.05;101902.72;5064620;28;20056;-74
2022/07/14 09:49:09;;;;;;;4.22;1.20;;;;;;;20.02;50.00;101892.16;5069887;28;20059;-72
2022/07/14 09:51:52;;;;;;;3.47;1.27;;;;;;;20.02;53.89;101889.53;5066715;28;20052;-73
2022/07/14 09:54:41;;;;;;;2.72;1.10;;;;;;;20.05;53.24;101892.03;5062067;28;20056;-74
2022/07/14 09:57:12;;;;;;;4.30;1.13;;;;;;;20.08;54.06;101891.00;5061315;28;20021;-73
2022/07/14 09:59:45;;;;;;;4.25;1.27;;;;;;;20.07;51.45;101890.16;5060014;28;20533;-73
2022/07/14 10:02:15;;;;;;;4.40;1.00;;;;;;;20.14;53.80;101890.72;5058303;28;20036;-74
2022/07/14 10:04:42;;;;;;;5.22;1.33;;;;;;;20.15;52.28;101890.63;5062684;28;20028;-74
2022/07/14 10:07:07;;;;;;;3.58;1.40;;;;;;;20.19;55.38;101887.84;5064867;28;20046;-74
2022/07/14 10:09:37;;;;;;;5.75;1.10;;;;;;;20.23;51.25;101886.75;5065549;28;20479;-73
2022/07/14 10:12:03;;;;;;;3.15;1.00;;;;;;;20.34;53.85;101889.69;5061630;28;20107;-73
2022/07/14 10:14:29;;;;;;;3.08;1.20;;;;;;;20.51;54.74;101902.06;5060146;28;20036;-73
2022/07/14 10:16:55;;;;;;;4.55;1.30;;;;;;;20.62;48.43;101896.25;5061904;28;20028;-74
2022/07/14 10:19:20;;;;;;;2.97;1.10;;;;;;;20.73;49.65;101900.97;5058892;28;20025;-74
2022/07/14 10:21:47;;;;;;;3.80;1.20;;;;;;;20.76;47.35;101898.19;5058162;28;20085;-73
2022/07/14 10:24:13;;;;;;;3.45;1.00;;;;;;;20.74;47.73;101900.88;5061504;28;20040;-74
2022/07/14 10:26:38;;;;;;;3.97;1.05;;;;;;;20.76;48.24;101904.34;5061700;28;20024;-73
2022/07/14 10:29:06;;;;;;;3.38;1.00;;;;;;;20.81;48.57;101903.25;5063192;28;20086;-73
2022/07/14 10:31:56;;;;;;;3.90;1.05;;;;;;;20.88;52.76;101902.84;5061989;28;20068;-73
2022/07/14 10:34:28;;;;;;;4.50;1.40;;;;;;;20.94;49.62;101896.38;5060304;28;20020;-73
2022/07/14 10:37:03;;;;;;;2.50;1.13;;;;;;;21.07;52.45;101902.72;5056215;28;20033;-74
2022/07/14 10:39:38;;;;;;;1.65;0.90;;;;;;;21.21;49.50;101890.53;5042596;28;20047;-73
2022/07/14 10:42:15;;;;;;;3.30;1.17;;;;;;;21.34;48.48;101896.91;5042648;28;20062;-74
2022/07/14 10:44:45;;;;;;;2.78;1.02;;;;;;;21.47;48.44;101888.28;5041268;28;20045;-74
2022/07/14 10:47:13;;;;;;;2.88;1.10;;;;;;;21.57;50.56;101892.09;5043659;28;20032;-74
2022/07/14 10:50:03;;;;;;;5.13;1.17;;;;;;;21.58;46.25;101888.53;5042831;28;20360;-74
2022/07/14 10:52:30;;;;;;;2.70;1.00;;;;;;;21.55;45.00;101895.78;5043416;28;20044;-74
2022/07/14 10:55:11;;;;;;;2.50;1.17;;;;;;;21.53;47.41;101887.91;5043784;28;20037;-73
2022/07/14 10:57:36;;;;;;;2.60;0.98;;;;;;;21.48;43.45;101895.28;5044475;28;20025;-74
2022/07/14 11:00:03;;;;;;;3.92;1.05;;;;;;;21.45;44.05;101890.97;5044480;28;20036;-74
2022/07/14 11:02:31;;;;;;;4.00;1.27;;;;;;;21.44;43.19;101891.91;5044727;28;20032;-74
2022/07/14 11:05:10;;;;;;;3.83;1.15;;;;;;;21.39;46.16;101894.00;5044250;28;20028;-74
2022/07/14 11:07:47;;;;;;;3.22;1.10;;;;;;;21.35;43.67;101895.09;5045143;28;20431;-73
2022/07/14 11:10:18;;;;;;;3.05;1.17;;;;;;;21.33;48.23;101889.88;5043969;28;20029;-73
2022/07/14 11:13:02;;;;;;;4.60;1.25;;;;;;;21.36;45.79;101887.06;5044065;28;20032;-74
2022/07/14 11:16:02;;;;;;;3.08;1.00;;;;;;;21.51;47.40;101895.94;5025169;28;20025;-74
2022/07/14 11:18:34;;;;;;;3.42;0.93;;;;;;;21.59;46.14;101890.22;5039303;28;20720;-74
2022/07/14 11:21:20;;;;;;;3.25;1.13;;;;;;;21.66;45.72;101886.34;5045059;28;20037;-74
2022/07/14 11:23:48;;;;;;;2.47;1.00;;;;;;;21.76;45.45;101889.31;5043439;28;20068;-74
2022/07/14 11:26:31;;;;;;;2.40;1.08;;;;;;;21.90;46.31;101891.16;5043142;28;20029;-74
2022/07/14 11:28:57;;;;;;;2.83;1.30;;;;;;;21.90;39.45;101888.53;5041951;28;20059;-74